createdAt,value
2023-02-17T00:00:45.208Z,88.80
2023-02-17T00:01:45.188Z,88.49
2023-02-17T00:02:45.200Z,88.08
2023-02-17T00:03:45.160Z,87.88
2023-02-17T00:04:45.143Z,88.49
2023-02-17T00:05:45.118Z,88.70
2023-02-17T00:06:45.099Z,89.42
2023-02-17T00:07:45.145Z,88.39
2023-02-17T00:08:45.102Z,89.01
2023-02-17T00:09:45.067Z,88.76
2023-02-17T00:10:45.081Z,88.14
2023-02-17T00:11:45.051Z,88.35
2023-02-17T00:12:45.038Z,88.45
2023-02-17T00:13:45.095Z,88.24
2023-02-17T00:14:45.021Z,89.11
2023-02-17T00:15:45.325Z,89.27
2023-02-17T00:16:45.000Z,89.52
2023-02-17T00:17:44.988Z,89.62
2023-02-17T00:18:44.971Z,89.72
2023-02-17T00:19:45.000Z,89.48
2023-02-17T00:20:44.955Z,89.07
2023-02-17T00:21:44.959Z,89.17
2023-02-17T00:22:44.926Z,88.45
2023-02-17T00:23:45.642Z,89.37
2023-02-17T00:24:44.899Z,88.96
2023-02-17T00:25:44.923Z,88.96
2023-02-17T00:26:44.891Z,88.96
2023-02-17T00:27:44.858Z,88.82
2023-02-17T00:28:44.895Z,87.45
2023-02-17T00:29:44.846Z,87.76
2023-02-17T00:30:44.906Z,87.65
2023-02-17T00:31:44.951Z,87.55
2023-02-17T00:32:44.906Z,87.70
2023-02-17T00:33:44.892Z,88.31
2023-02-17T00:34:44.795Z,88.10
2023-02-17T00:35:44.772Z,88.72
2023-02-17T00:36:44.820Z,88.68
2023-02-17T00:37:44.803Z,87.71
2023-02-17T00:38:44.755Z,87.76
2023-02-17T00:39:44.791Z,88.06
2023-02-17T00:40:44.726Z,88.27
2023-02-17T00:41:44.760Z,87.76
2023-02-17T00:42:44.808Z,87.51
2023-02-17T00:43:44.776Z,86.99
2023-02-17T00:44:44.768Z,87.04
2023-02-17T00:45:44.710Z,87.65
2023-02-17T00:46:44.771Z,87.71
2023-02-17T00:47:44.659Z,87.26
2023-02-17T00:48:44.792Z,86.14
2023-02-17T00:49:44.622Z,86.28
2023-02-17T00:50:44.666Z,87.41
2023-02-17T00:51:44.610Z,87.10
2023-02-17T00:52:44.600Z,87.10
2023-02-17T00:53:44.572Z,87.20
2023-02-17T00:54:44.596Z,86.58
2023-02-17T00:55:44.591Z,86.44
2023-02-17T00:56:44.552Z,86.34
2023-02-17T00:57:44.581Z,85.72
2023-02-17T00:58:44.533Z,85.31
2023-02-17T00:59:44.661Z,85.93
2023-02-17T01:00:44.505Z,86.24
2023-02-17T01:01:44.537Z,85.83
2023-02-17T01:02:44.508Z,86.18
2023-02-17T01:03:44.454Z,86.90
2023-02-17T01:04:44.471Z,86.75
2023-02-17T01:05:44.461Z,86.34
2023-02-17T01:06:44.446Z,86.14
2023-02-17T01:07:44.436Z,85.93
2023-02-17T01:08:44.419Z,85.83
2023-02-17T01:09:44.423Z,85.52
2023-02-17T01:10:44.422Z,85.63
2023-02-17T01:11:44.372Z,85.72
2023-02-17T01:12:44.358Z,85.83
2023-02-17T01:13:44.343Z,85.72
2023-02-17T01:14:44.348Z,85.83
2023-02-17T01:15:44.324Z,85.63
2023-02-17T01:16:44.325Z,85.42
2023-02-17T01:17:44.301Z,86.28
2023-02-17T01:18:44.277Z,86.34
2023-02-17T01:19:44.275Z,86.24
2023-02-17T01:20:44.278Z,86.34
2023-02-17T01:21:44.306Z,85.72
2023-02-17T01:22:44.269Z,85.31
2023-02-17T01:23:44.224Z,86.24
2023-02-17T01:24:44.213Z,86.79
2023-02-17T01:25:44.224Z,86.69
2023-02-17T01:26:44.198Z,87.20
2023-02-17T01:27:44.195Z,87.10
2023-02-17T01:28:44.172Z,87.51
2023-02-17T01:29:44.157Z,86.79
2023-02-17T01:30:44.202Z,87.20
2023-02-17T01:31:44.156Z,86.90
2023-02-17T01:32:44.127Z,86.90
2023-02-17T01:33:44.158Z,87.61
2023-02-17T01:34:44.101Z,86.99
2023-02-17T01:35:44.086Z,86.44
2023-02-17T01:36:44.108Z,85.48
2023-02-17T01:37:44.057Z,85.22
2023-02-17T01:38:44.102Z,85.72
2023-02-17T01:39:44.084Z,85.38
2023-02-17T01:40:44.024Z,85.63
2023-02-17T01:41:44.017Z,85.48
2023-02-17T01:42:44.005Z,85.11
2023-02-17T01:43:43.986Z,85.52
2023-02-17T01:44:44.028Z,85.42
2023-02-17T01:45:43.962Z,85.01
2023-02-17T01:46:44.086Z,85.63
2023-02-17T01:47:43.941Z,85.63
2023-02-17T01:48:43.953Z,85.17
2023-02-17T01:49:43.919Z,85.11
2023-02-17T01:50:43.957Z,85.25
2023-02-17T01:51:43.892Z,86.58
2023-02-17T01:52:43.883Z,86.79
2023-02-17T01:53:43.868Z,87.20
2023-02-17T01:54:43.902Z,87.10
2023-02-17T01:55:43.855Z,86.58
2023-02-17T01:56:43.856Z,85.97
2023-02-17T01:57:43.824Z,86.58
2023-02-17T01:58:43.816Z,86.38
2023-02-17T01:59:43.794Z,86.38
2023-02-17T02:00:43.794Z,87.24
2023-02-17T02:01:43.872Z,86.90
2023-02-17T02:02:43.866Z,86.79
2023-02-17T02:03:43.756Z,86.79
2023-02-17T02:04:43.733Z,87.45
2023-02-17T02:05:43.734Z,87.34
2023-02-17T02:06:43.760Z,87.30
2023-02-17T02:07:43.706Z,87.45
2023-02-17T02:08:43.729Z,87.76
2023-02-17T02:09:43.700Z,87.45
2023-02-17T02:10:43.675Z,87.30
2023-02-17T02:11:43.675Z,86.83
2023-02-17T02:12:43.663Z,87.10
2023-02-17T02:13:43.636Z,86.79
2023-02-17T02:14:43.665Z,87.20
2023-02-17T02:15:43.630Z,86.58
2023-02-17T02:16:43.655Z,86.07
2023-02-17T02:17:43.618Z,86.28
2023-02-17T02:18:43.588Z,86.07
2023-02-17T02:19:43.599Z,86.58
2023-02-17T02:20:43.556Z,86.38
2023-02-17T02:21:43.567Z,85.97
2023-02-17T02:22:43.540Z,86.69
2023-02-17T02:23:43.547Z,86.99
2023-02-17T02:24:43.530Z,86.58
2023-02-17T02:25:43.551Z,86.38
2023-02-17T02:26:43.490Z,86.28
2023-02-17T02:27:43.486Z,85.72
2023-02-17T02:28:43.470Z,86.18
2023-02-17T02:29:43.476Z,86.28
2023-02-17T02:30:43.554Z,86.48
2023-02-17T02:31:43.475Z,85.52
2023-02-17T02:32:43.416Z,85.31
2023-02-17T02:33:43.436Z,85.77
2023-02-17T02:34:43.423Z,86.99
2023-02-17T02:35:43.415Z,86.99
2023-02-17T02:36:43.396Z,86.48
2023-02-17T02:37:43.376Z,86.73
2023-02-17T02:38:43.390Z,87.10
2023-02-17T02:39:43.364Z,86.28
2023-02-17T02:40:43.347Z,86.48
2023-02-17T02:41:43.338Z,86.93
2023-02-17T02:42:43.314Z,87.45
2023-02-17T02:43:43.316Z,88.17
2023-02-17T02:44:43.275Z,87.24
2023-02-17T02:45:43.294Z,87.41
2023-02-17T02:46:43.266Z,86.90
2023-02-17T02:47:43.278Z,86.99
2023-02-17T02:48:43.251Z,86.99
2023-02-17T02:49:43.228Z,87.10
2023-02-17T02:50:43.226Z,86.90
2023-02-17T02:51:43.206Z,87.24
2023-02-17T02:52:43.241Z,86.90
2023-02-17T02:53:43.266Z,86.69
2023-02-17T02:54:43.192Z,86.24
2023-02-17T02:55:43.184Z,86.04
2023-02-17T02:56:43.137Z,86.18
2023-02-17T02:57:43.171Z,86.99
2023-02-17T02:58:43.115Z,86.55
2023-02-17T02:59:43.169Z,85.72
2023-02-17T03:00:43.120Z,85.17
2023-02-17T03:01:43.098Z,85.52
2023-02-17T03:02:43.090Z,85.93
2023-02-17T03:03:43.078Z,85.69
2023-02-17T03:04:43.059Z,84.91
2023-02-17T03:05:43.097Z,85.83
2023-02-17T03:06:43.016Z,86.28
2023-02-17T03:07:43.013Z,86.65
2023-02-17T03:08:43.022Z,86.38
2023-02-17T03:09:42.991Z,86.55
2023-02-17T03:10:43.053Z,86.14
2023-02-17T03:11:42.996Z,86.75
2023-02-17T03:12:42.964Z,86.75
2023-02-17T03:13:42.960Z,85.69
2023-02-17T03:14:42.947Z,85.28
2023-02-17T03:15:42.961Z,85.83
2023-02-17T03:16:42.938Z,85.89
2023-02-17T03:17:42.940Z,85.52
2023-02-17T03:18:42.906Z,85.38
2023-02-17T03:19:42.896Z,85.28
2023-02-17T03:20:42.868Z,84.63
2023-02-17T03:21:42.856Z,84.97
2023-02-17T03:22:42.880Z,85.17
2023-02-17T03:23:42.818Z,85.58
2023-02-17T03:24:42.819Z,85.14
2023-02-17T03:25:42.832Z,84.01
2023-02-17T03:26:42.791Z,84.15
2023-02-17T03:27:42.779Z,84.77
2023-02-17T03:28:42.823Z,84.63
2023-02-17T03:29:42.761Z,83.66
2023-02-17T03:30:42.751Z,83.39
2023-02-17T03:31:42.773Z,83.25
2023-02-17T03:32:42.774Z,84.05
2023-02-17T03:33:42.715Z,84.87
2023-02-17T03:34:42.793Z,84.87
2023-02-17T03:35:42.732Z,84.63
2023-02-17T03:36:42.711Z,83.70
2023-02-17T03:37:42.668Z,84.05
2023-02-17T03:38:42.651Z,84.72
2023-02-17T03:39:42.677Z,84.42
2023-02-17T03:40:42.665Z,84.01
2023-02-17T03:41:42.639Z,84.63
2023-02-17T03:42:42.604Z,84.42
2023-02-17T03:43:42.590Z,84.63
2023-02-17T03:44:42.593Z,84.52
2023-02-17T03:45:42.639Z,84.31
2023-02-17T03:46:42.604Z,84.87
2023-02-17T03:47:42.575Z,85.14
2023-02-17T03:48:42.557Z,84.07
2023-02-17T03:49:42.544Z,84.56
2023-02-17T03:50:42.510Z,84.93
2023-02-17T03:51:42.530Z,84.38
2023-02-17T03:52:42.524Z,84.31
2023-02-17T03:53:42.472Z,84.42
2023-02-17T03:54:42.482Z,84.97
2023-02-17T03:55:42.455Z,85.03
2023-02-17T03:56:42.442Z,84.83
2023-02-17T03:57:42.481Z,84.38
2023-02-17T03:58:42.434Z,84.17
2023-02-17T03:59:42.414Z,84.17
2023-02-17T04:00:42.413Z,83.87
2023-02-17T04:01:42.445Z,83.46
2023-02-17T04:02:44.114Z,83.97
2023-02-17T04:03:42.430Z,84.79
2023-02-17T04:04:42.343Z,84.17
2023-02-17T04:05:42.334Z,84.48
2023-02-17T04:06:42.325Z,84.07
2023-02-17T04:07:42.325Z,84.38
2023-02-17T04:08:42.300Z,84.17
2023-02-17T04:09:42.335Z,84.58
2023-02-17T04:10:42.277Z,84.48
2023-02-17T04:11:42.274Z,84.89
2023-02-17T04:12:42.263Z,84.34
2023-02-17T04:13:42.281Z,84.14
2023-02-17T04:14:42.232Z,84.28
2023-02-17T04:15:42.699Z,84.48
2023-02-17T04:16:42.212Z,84.55
2023-02-17T04:17:42.204Z,84.58
2023-02-17T04:18:42.225Z,84.89
2023-02-17T04:19:42.173Z,84.58
2023-02-17T04:20:42.174Z,85.10
2023-02-17T04:21:42.207Z,84.99
2023-02-17T04:22:42.200Z,84.85
2023-02-17T04:23:42.125Z,84.75
2023-02-17T04:24:42.125Z,84.65
2023-02-17T04:25:42.127Z,84.34
2023-02-17T04:26:42.113Z,84.89
2023-02-17T04:27:42.105Z,85.61
2023-02-17T04:28:42.104Z,86.22
2023-02-17T04:29:42.065Z,85.71
2023-02-17T04:30:42.073Z,85.81
2023-02-17T04:31:42.132Z,86.02
2023-02-17T04:32:42.067Z,85.36
2023-02-17T04:33:42.046Z,85.40
2023-02-17T04:34:42.043Z,86.02
2023-02-17T04:35:41.997Z,86.22
2023-02-17T04:36:44.073Z,85.67
2023-02-17T04:37:42.011Z,85.47
2023-02-17T04:38:41.988Z,85.26
2023-02-17T04:39:41.967Z,85.26
2023-02-17T04:40:41.989Z,85.57
2023-02-17T04:41:41.923Z,86.22
2023-02-17T04:42:41.920Z,86.38
2023-02-17T04:43:41.904Z,86.29
2023-02-17T04:44:41.914Z,86.08
2023-02-17T04:45:41.876Z,85.88
2023-02-17T04:46:41.875Z,86.94
2023-02-17T04:47:41.846Z,86.69
2023-02-17T04:48:41.870Z,87.76
2023-02-17T04:49:41.885Z,87.10
2023-02-17T04:50:41.836Z,87.71
2023-02-17T04:51:41.819Z,87.10
2023-02-17T04:52:41.807Z,87.10
2023-02-17T04:53:41.790Z,87.71
2023-02-17T04:54:41.766Z,88.02
2023-02-17T04:55:41.801Z,88.68
2023-02-17T04:56:41.765Z,89.29
2023-02-17T04:57:41.736Z,89.70
2023-02-17T04:58:41.727Z,89.25
2023-02-17T04:59:41.721Z,88.18
2023-02-17T05:00:41.742Z,89.18
2023-02-17T05:01:41.828Z,89.90
2023-02-17T05:02:41.690Z,89.80
2023-02-17T05:03:41.669Z,90.21
2023-02-17T05:04:41.753Z,91.17
2023-02-17T05:05:41.664Z,91.74
2023-02-17T05:06:41.670Z,91.44
2023-02-17T05:07:41.620Z,91.85
2023-02-17T05:08:41.617Z,91.95
2023-02-17T05:09:41.643Z,91.95
2023-02-17T05:10:41.593Z,92.46
2023-02-17T05:11:41.750Z,91.13
2023-02-17T05:12:41.568Z,90.99
2023-02-17T05:13:41.549Z,90.82
2023-02-17T05:14:41.548Z,90.92
2023-02-17T05:15:41.595Z,90.99
2023-02-17T05:16:41.528Z,91.44
2023-02-17T05:17:41.559Z,91.95
2023-02-17T05:18:41.499Z,92.15
2023-02-17T05:19:41.491Z,92.46
2023-02-17T05:20:41.513Z,93.43
2023-02-17T05:21:41.479Z,93.38
2023-02-17T05:22:41.470Z,92.81
2023-02-17T05:23:41.492Z,93.48
2023-02-17T05:24:41.437Z,92.15
2023-02-17T05:25:41.411Z,92.97
2023-02-17T05:26:41.422Z,93.69
2023-02-17T05:27:41.380Z,93.38
2023-02-17T05:28:41.481Z,93.07
2023-02-17T05:29:41.376Z,92.36
2023-02-17T05:30:41.403Z,92.93
2023-02-17T05:31:41.482Z,92.15
2023-02-17T05:32:41.360Z,93.07
2023-02-17T05:33:41.363Z,93.69
2023-02-17T05:34:41.331Z,93.59
2023-02-17T05:35:41.303Z,92.62
2023-02-17T05:36:41.292Z,92.62
2023-02-17T05:37:41.305Z,92.42
2023-02-17T05:38:41.275Z,92.42
2023-02-17T05:39:41.254Z,93.18
2023-02-17T05:40:41.267Z,92.83
2023-02-17T05:41:41.242Z,91.80
2023-02-17T05:42:41.224Z,92.11
2023-02-17T05:43:41.205Z,92.21
2023-02-17T05:44:41.212Z,92.77
2023-02-17T05:45:41.208Z,93.54
2023-02-17T05:46:41.242Z,92.32
2023-02-17T05:47:41.175Z,93.33
2023-02-17T05:48:41.157Z,92.93
2023-02-17T05:49:41.150Z,93.03
2023-02-17T05:50:41.128Z,93.44
2023-02-17T05:51:41.285Z,92.83
2023-02-17T05:52:41.151Z,92.72
2023-02-17T05:53:41.087Z,91.86
2023-02-17T05:54:41.082Z,91.91
2023-02-17T05:55:41.071Z,93.44
2023-02-17T05:56:41.061Z,93.28
2023-02-17T05:57:41.227Z,94.06
2023-02-17T05:58:41.093Z,93.44
2023-02-17T05:59:41.025Z,93.44
2023-02-17T06:00:41.038Z,93.95
2023-02-17T06:01:41.016Z,93.54
2023-02-17T06:02:41.064Z,93.03
2023-02-17T06:03:41.003Z,94.92
2023-02-17T06:04:41.049Z,94.60
2023-02-17T06:05:41.017Z,95.22
2023-02-17T06:06:40.941Z,96.25
2023-02-17T06:07:40.991Z,95.18
2023-02-17T06:08:40.935Z,94.97
2023-02-17T06:09:40.940Z,94.56
2023-02-17T06:10:40.919Z,94.67
2023-02-17T06:11:40.907Z,94.87
2023-02-17T06:12:40.972Z,95.48
2023-02-17T06:13:40.871Z,94.87
2023-02-17T06:14:40.878Z,95.28
2023-02-17T06:15:40.864Z,96.04
2023-02-17T06:16:40.851Z,95.79
2023-02-17T06:17:40.911Z,95.18
2023-02-17T06:18:40.871Z,96.34
2023-02-17T06:19:40.811Z,96.30
2023-02-17T06:20:40.813Z,94.32
2023-02-17T06:21:40.788Z,94.77
2023-02-17T06:22:40.765Z,94.87
2023-02-17T06:23:40.769Z,95.63
2023-02-17T06:24:40.749Z,96.00
2023-02-17T06:25:40.727Z,95.28
2023-02-17T06:26:40.767Z,96.00
2023-02-17T06:27:40.698Z,97.22
2023-02-17T06:28:40.707Z,96.41
2023-02-17T06:29:40.681Z,96.10
2023-02-17T06:30:40.786Z,95.89
2023-02-17T06:31:40.720Z,95.23
2023-02-17T06:32:40.660Z,94.42
2023-02-17T06:33:40.632Z,94.01
2023-02-17T06:34:40.613Z,94.62
2023-02-17T06:35:40.606Z,94.82
2023-02-17T06:36:40.623Z,93.86
2023-02-17T06:37:40.635Z,93.55
2023-02-17T06:38:40.586Z,95.03
2023-02-17T06:39:40.574Z,94.93
2023-02-17T06:40:40.567Z,93.45
2023-02-17T06:41:40.555Z,93.96
2023-02-17T06:42:40.524Z,93.55
2023-02-17T06:43:40.676Z,94.21
2023-02-17T06:44:40.537Z,94.32
2023-02-17T06:45:40.506Z,94.07
2023-02-17T06:46:40.483Z,95.54
2023-02-17T06:47:40.474Z,95.85
2023-02-17T06:48:40.460Z,95.64
2023-02-17T06:49:40.843Z,95.75
2023-02-17T06:50:40.440Z,95.64
2023-02-17T06:51:40.435Z,95.34
2023-02-17T06:52:40.414Z,94.78
2023-02-17T06:53:40.395Z,94.93
2023-02-17T06:54:40.406Z,95.23
2023-02-17T06:55:40.434Z,96.05
2023-02-17T06:56:40.365Z,96.46
2023-02-17T06:57:40.355Z,96.67
2023-02-17T06:58:40.344Z,96.87
2023-02-17T06:59:40.336Z,96.97
2023-02-17T07:00:40.316Z,96.67
2023-02-17T07:01:40.353Z,98.24
2023-02-17T07:02:40.562Z,98.14
2023-02-17T07:03:40.280Z,97.89
2023-02-17T07:04:40.298Z,98.10
2023-02-17T07:05:40.278Z,96.15
2023-02-17T07:06:40.332Z,97.28
2023-02-17T07:07:40.270Z,97.99
2023-02-17T07:08:40.235Z,98.10
2023-02-17T07:09:40.221Z,96.72
2023-02-17T07:10:40.225Z,97.69
2023-02-17T07:11:40.268Z,96.67
2023-02-17T07:12:40.202Z,97.49
2023-02-17T07:13:40.201Z,96.11
2023-02-17T07:14:40.184Z,97.44
2023-02-17T07:15:40.291Z,98.20
2023-02-17T07:16:40.215Z,97.95
2023-02-17T07:17:40.142Z,96.72
2023-02-17T07:18:40.153Z,95.39
2023-02-17T07:19:40.114Z,95.39
2023-02-17T07:20:40.101Z,96.21
2023-02-17T07:21:40.094Z,98.20
2023-02-17T07:22:40.073Z,97.74
2023-02-17T07:23:40.061Z,96.31
2023-02-17T07:24:40.106Z,97.58
2023-02-17T07:25:40.030Z,97.95
2023-02-17T07:26:40.015Z,96.83
2023-02-17T07:27:40.028Z,96.98
2023-02-17T07:28:40.011Z,96.58
2023-02-17T07:29:40.002Z,95.04
2023-02-17T07:30:40.005Z,95.25
2023-02-17T07:31:39.969Z,95.20
2023-02-17T07:32:39.960Z,94.29
2023-02-17T07:33:39.944Z,94.74
2023-02-17T07:34:39.929Z,95.04
2023-02-17T07:35:39.942Z,95.86
2023-02-17T07:36:39.961Z,96.27
2023-02-17T07:37:39.890Z,95.20
2023-02-17T07:38:39.905Z,94.94
2023-02-17T07:39:39.883Z,95.56
2023-02-17T07:40:39.891Z,96.27
2023-02-17T07:41:39.880Z,95.96
2023-02-17T07:42:39.839Z,95.72
2023-02-17T07:43:39.824Z,94.94
2023-02-17T07:44:39.810Z,95.96
2023-02-17T07:45:39.921Z,96.47
2023-02-17T07:46:39.806Z,96.88
2023-02-17T07:47:39.910Z,95.31
2023-02-17T07:48:39.787Z,95.76
2023-02-17T07:49:39.743Z,96.92
2023-02-17T07:50:39.745Z,97.08
2023-02-17T07:51:39.751Z,97.29
2023-02-17T07:52:39.735Z,96.88
2023-02-17T07:53:39.719Z,96.33
2023-02-17T07:54:39.746Z,95.61
2023-02-17T07:55:39.681Z,94.49
2023-02-17T07:56:39.668Z,94.18
2023-02-17T07:57:39.671Z,94.70
2023-02-17T07:58:39.665Z,94.85
2023-02-17T07:59:39.640Z,93.73
2023-02-17T08:00:39.616Z,94.29
2023-02-17T08:01:39.622Z,95.20
2023-02-17T08:02:39.596Z,94.14
2023-02-17T08:03:39.668Z,94.90
2023-02-17T08:04:39.607Z,95.10
2023-02-17T08:05:39.564Z,95.20
2023-02-17T08:06:39.545Z,95.41
2023-02-17T08:07:39.873Z,95.51
2023-02-17T08:08:39.531Z,95.67
2023-02-17T08:09:39.539Z,96.12
2023-02-17T08:10:39.515Z,95.51
2023-02-17T08:11:39.501Z,95.97
2023-02-17T08:12:39.508Z,95.81
2023-02-17T08:13:39.464Z,96.48
2023-02-17T08:14:39.477Z,95.06
2023-02-17T08:15:39.466Z,95.77
2023-02-17T08:16:39.469Z,94.24
2023-02-17T08:17:39.427Z,95.16
2023-02-17T08:18:39.420Z,95.77
2023-02-17T08:19:48.047Z,96.43
2023-02-17T08:20:40.439Z,97.45
2023-02-17T08:21:39.381Z,98.27
2023-02-17T08:22:39.380Z,96.28
2023-02-17T08:23:39.359Z,96.22
2023-02-17T08:24:39.374Z,97.40
2023-02-17T08:25:39.334Z,96.94
2023-02-17T08:26:39.361Z,97.71
2023-02-17T08:27:39.304Z,96.79
2023-02-17T08:28:39.300Z,97.20
2023-02-17T08:29:39.336Z,96.14
2023-02-17T08:30:39.369Z,96.23
2023-02-17T08:31:39.342Z,94.60
2023-02-17T08:32:39.288Z,93.69
2023-02-17T08:33:39.254Z,94.20
2023-02-17T08:34:39.246Z,95.97
2023-02-17T08:35:39.292Z,97.55
2023-02-17T08:36:39.240Z,98.57
2023-02-17T08:37:39.260Z,98.36
2023-02-17T08:38:39.182Z,98.02
2023-02-17T08:39:39.161Z,97.30
2023-02-17T08:40:39.205Z,98.22
2023-02-17T08:41:39.138Z,97.91
2023-02-17T08:42:39.156Z,97.25
2023-02-17T08:43:39.200Z,95.32
2023-02-17T08:44:39.107Z,96.23
2023-02-17T08:45:39.146Z,95.73
2023-02-17T08:46:39.200Z,95.87
2023-02-17T08:47:39.078Z,96.03
2023-02-17T08:48:39.064Z,96.03
2023-02-17T08:49:39.073Z,95.32
2023-02-17T08:50:39.064Z,95.93
2023-02-17T08:51:39.054Z,95.12
2023-02-17T08:52:39.026Z,94.91
2023-02-17T08:53:39.034Z,96.34
2023-02-17T08:54:39.022Z,96.44
2023-02-17T08:55:48.982Z,95.12
2023-02-17T08:56:40.009Z,95.12
2023-02-17T08:57:39.050Z,95.62
2023-02-17T08:58:39.017Z,96.34
2023-02-17T08:59:38.951Z,97.05
2023-02-17T09:00:39.006Z,96.95
2023-02-17T09:01:39.016Z,97.05
2023-02-17T09:02:38.947Z,96.64
2023-02-17T09:03:38.924Z,97.25
2023-02-17T09:04:38.971Z,96.14
2023-02-17T09:05:39.015Z,96.84
2023-02-17T09:06:38.931Z,96.70
2023-02-17T09:07:38.897Z,95.68
2023-02-17T09:08:38.893Z,95.28
2023-02-17T09:09:38.820Z,94.26
2023-02-17T09:10:38.907Z,94.21
2023-02-17T09:11:38.856Z,94.56
2023-02-17T09:12:39.150Z,95.07
2023-02-17T09:13:38.769Z,95.03
2023-02-17T09:14:38.805Z,94.56
2023-02-17T09:15:40.685Z,94.82
2023-02-17T09:16:41.050Z,93.50
2023-02-17T09:17:38.771Z,93.40
2023-02-17T09:18:38.722Z,94.01
2023-02-17T09:19:38.772Z,92.84
2023-02-17T09:20:38.681Z,93.45
2023-02-17T09:21:38.679Z,92.94
2023-02-17T09:22:38.789Z,92.03
2023-02-17T09:23:38.681Z,93.60
2023-02-17T09:24:38.837Z,94.31
2023-02-17T09:25:38.670Z,94.27
2023-02-17T09:26:38.623Z,92.54
2023-02-17T09:27:38.625Z,92.29
2023-02-17T09:28:38.629Z,91.99
2023-02-17T09:29:38.597Z,92.23
2023-02-17T09:30:38.636Z,92.44
2023-02-17T09:31:38.663Z,92.84
2023-02-17T09:32:38.562Z,92.44
2023-02-17T09:33:38.533Z,93.70
2023-02-17T09:34:38.603Z,93.86
2023-02-17T09:35:38.520Z,92.94
2023-02-17T09:36:38.500Z,93.29
2023-02-17T09:37:38.562Z,93.40
2023-02-17T09:38:38.521Z,93.66
2023-02-17T09:39:38.491Z,94.42
2023-02-17T09:40:38.492Z,94.01
2023-02-17T09:41:38.515Z,94.21
2023-02-17T09:42:38.436Z,93.15
2023-02-17T09:43:38.437Z,94.31
2023-02-17T09:44:38.406Z,95.33
2023-02-17T09:45:38.423Z,94.21
2023-02-17T09:46:38.493Z,94.62
2023-02-17T09:47:38.412Z,93.76
2023-02-17T09:48:38.373Z,93.15
2023-02-17T09:49:38.433Z,94.82
2023-02-17T09:50:38.405Z,94.37
2023-02-17T09:51:38.340Z,92.49
2023-02-17T09:52:38.413Z,92.40
2023-02-17T09:53:38.307Z,91.68
2023-02-17T09:54:38.290Z,92.49
2023-02-17T09:55:38.309Z,92.09
2023-02-17T09:56:38.279Z,92.44
2023-02-17T09:57:38.294Z,92.74
2023-02-17T09:58:38.371Z,92.94
2023-02-17T09:59:38.237Z,93.25
2023-02-17T10:00:38.308Z,93.41
2023-02-17T10:01:38.221Z,93.01
2023-02-17T10:02:38.236Z,91.53
2023-02-17T10:03:38.349Z,92.09
2023-02-17T10:04:38.267Z,91.64
2023-02-17T10:05:38.253Z,91.99
2023-02-17T10:06:38.158Z,91.48
2023-02-17T10:07:38.171Z,92.09
2023-02-17T10:08:38.150Z,91.03
2023-02-17T10:09:38.151Z,92.29
2023-02-17T10:10:38.195Z,91.38
2023-02-17T10:11:38.178Z,91.38
2023-02-17T10:12:38.126Z,91.13
2023-02-17T10:13:38.076Z,91.43
2023-02-17T10:14:38.089Z,91.43
2023-02-17T10:15:38.195Z,90.62
2023-02-17T10:16:38.165Z,90.97
2023-02-17T10:17:38.033Z,91.13
2023-02-17T10:18:38.037Z,91.48
2023-02-17T10:19:38.077Z,92.09
2023-02-17T10:20:38.064Z,90.52
2023-02-17T10:21:38.023Z,90.83
2023-02-17T10:22:38.000Z,90.37
2023-02-17T10:23:38.042Z,89.87
2023-02-17T10:24:38.014Z,89.11
2023-02-17T10:25:38.014Z,88.60
2023-02-17T10:26:37.970Z,88.20
2023-02-17T10:27:37.946Z,88.75
2023-02-17T10:28:37.931Z,88.95
2023-02-17T10:29:37.902Z,88.30
2023-02-17T10:30:37.914Z,88.50
2023-02-17T10:31:37.996Z,87.99
2023-02-17T10:32:38.005Z,87.34
2023-02-17T10:33:37.850Z,86.39
2023-02-17T10:34:37.844Z,86.39
2023-02-17T10:35:37.897Z,87.24
2023-02-17T10:36:37.836Z,86.49
2023-02-17T10:37:38.797Z,85.94
2023-02-17T10:38:37.782Z,84.83
2023-02-17T10:39:37.783Z,83.98
2023-02-17T10:40:37.798Z,84.01
2023-02-17T10:41:37.747Z,85.78
2023-02-17T10:42:37.743Z,85.88
2023-02-17T10:43:37.754Z,85.64
2023-02-17T10:44:37.788Z,84.83
2023-02-17T10:45:37.714Z,85.03
2023-02-17T10:46:37.718Z,85.24
2023-02-17T10:47:37.691Z,85.64
2023-02-17T10:48:37.668Z,84.72
2023-02-17T10:49:37.693Z,85.44
2023-02-17T10:50:37.667Z,84.83
2023-02-17T10:51:37.648Z,85.53
2023-02-17T10:52:37.717Z,84.78
2023-02-17T10:53:37.606Z,83.98
2023-02-17T10:54:37.597Z,84.32
2023-02-17T10:55:37.608Z,84.58
2023-02-17T10:56:37.574Z,84.72
2023-02-17T10:57:37.543Z,84.69
2023-02-17T10:58:37.570Z,83.73
2023-02-17T10:59:37.535Z,83.57
2023-02-17T11:00:37.561Z,84.08
2023-02-17T11:01:37.586Z,83.33
2023-02-17T11:02:37.557Z,82.17
2023-02-17T11:03:37.521Z,82.72
2023-02-17T11:04:37.520Z,83.03
2023-02-17T11:05:37.477Z,81.46
2023-02-17T11:06:37.471Z,81.83
2023-02-17T11:07:37.450Z,81.37
2023-02-17T11:08:37.432Z,81.32
2023-02-17T11:09:37.418Z,80.27
2023-02-17T11:10:37.424Z,79.13
2023-02-17T11:11:37.413Z,79.16
2023-02-17T11:12:37.421Z,79.36
2023-02-17T11:13:37.398Z,78.17
2023-02-17T11:14:37.373Z,77.97
2023-02-17T11:15:37.361Z,78.52
2023-02-17T11:16:37.405Z,78.11
2023-02-17T11:17:37.326Z,78.11
2023-02-17T11:18:37.345Z,77.67
2023-02-17T11:19:37.301Z,77.57
2023-02-17T11:20:37.324Z,76.66
2023-02-17T11:21:37.344Z,77.13
2023-02-17T11:22:37.274Z,77.40
2023-02-17T11:23:37.370Z,77.33
2023-02-17T11:24:37.243Z,77.14
2023-02-17T11:25:37.250Z,77.64
2023-02-17T11:26:37.269Z,77.57
2023-02-17T11:27:37.279Z,76.28
2023-02-17T11:28:37.221Z,74.93
2023-02-17T11:29:37.206Z,76.08
2023-02-17T11:30:37.186Z,75.04
2023-02-17T11:31:37.294Z,74.40
2023-02-17T11:32:37.167Z,74.63
2023-02-17T11:33:37.178Z,74.66
2023-02-17T11:34:37.144Z,75.17
2023-02-17T11:35:37.137Z,75.27
2023-02-17T11:36:37.117Z,75.51
2023-02-17T11:37:37.099Z,75.34
2023-02-17T11:38:37.088Z,74.84
2023-02-17T11:39:37.068Z,74.13
2023-02-17T11:40:37.082Z,74.53
2023-02-17T11:41:37.086Z,74.77
2023-02-17T11:42:37.173Z,75.61
2023-02-17T11:43:37.033Z,75.31
2023-02-17T11:44:37.015Z,75.68
2023-02-17T11:45:37.025Z,75.98
2023-02-17T11:46:37.012Z,75.00
2023-02-17T11:47:37.043Z,73.58
2023-02-17T11:48:36.979Z,73.35
2023-02-17T11:49:36.998Z,72.71
2023-02-17T11:50:41.771Z,73.05
2023-02-17T11:51:37.968Z,73.05
2023-02-17T11:52:36.944Z,74.22
2023-02-17T11:53:36.913Z,74.66
2023-02-17T11:54:36.897Z,74.97
2023-02-17T11:55:36.885Z,74.22
2023-02-17T11:56:36.881Z,74.22
2023-02-17T11:57:36.860Z,74.60
2023-02-17T11:58:36.879Z,75.31
2023-02-17T11:59:36.840Z,74.93
2023-02-17T12:00:36.843Z,74.53
2023-02-17T12:01:36.862Z,74.33
2023-02-17T12:02:36.805Z,73.69
2023-02-17T12:03:37.021Z,73.93
2023-02-17T12:04:36.814Z,75.37
2023-02-17T12:05:36.843Z,75.41
2023-02-17T12:06:36.799Z,75.48
2023-02-17T12:07:36.803Z,74.97
2023-02-17T12:08:36.764Z,75.27
2023-02-17T12:09:36.815Z,74.29
2023-02-17T12:10:36.696Z,74.13
2023-02-17T12:11:36.687Z,75.21
2023-02-17T12:12:36.681Z,75.68
2023-02-17T12:13:36.660Z,75.88
2023-02-17T12:14:36.646Z,75.27
2023-02-17T12:15:36.685Z,74.73
2023-02-17T12:16:36.650Z,74.66
2023-02-17T12:17:36.617Z,74.73
2023-02-17T12:18:36.632Z,74.13
2023-02-17T12:19:37.176Z,75.17
2023-02-17T12:20:36.586Z,74.84
2023-02-17T12:21:36.652Z,74.90
2023-02-17T12:22:36.654Z,74.09
2023-02-17T12:23:36.601Z,73.55
2023-02-17T12:24:36.525Z,72.41
2023-02-17T12:25:36.515Z,71.87
2023-02-17T12:26:36.562Z,71.50
2023-02-17T12:27:36.526Z,72.75
2023-02-17T12:28:36.485Z,72.85
2023-02-17T12:29:36.485Z,72.71
2023-02-17T12:30:36.577Z,73.65
2023-02-17T12:31:36.525Z,72.95
2023-02-17T12:32:36.498Z,72.64
2023-02-17T12:33:36.456Z,72.54
2023-02-17T12:34:36.441Z,73.49
2023-02-17T12:35:36.398Z,73.08
2023-02-17T12:36:36.485Z,72.68
2023-02-17T12:37:36.389Z,73.55
2023-02-17T12:38:36.378Z,72.64
2023-02-17T12:39:36.437Z,73.89
2023-02-17T12:40:36.353Z,73.58
2023-02-17T12:41:36.345Z,73.49
2023-02-17T12:42:36.324Z,73.15
2023-02-17T12:43:36.373Z,73.38
2023-02-17T12:44:36.305Z,73.08
2023-02-17T12:45:36.321Z,73.72
2023-02-17T12:46:36.269Z,73.82
2023-02-17T12:47:36.255Z,73.82
2023-02-17T12:48:36.247Z,74.33
2023-02-17T12:49:36.243Z,73.52
2023-02-17T12:50:36.262Z,73.82
2023-02-17T12:51:36.241Z,74.02
2023-02-17T12:52:36.225Z,73.15